Terminal Aerodrome Forecast
Issued by NWS

Home | Current Version | Previous Version | Text Only | Print | Product List | Glossary On
Versions: 1 2 3 4 5 6 7 8 9 10 11 12 13 14 15 16 17 18 19 20 21 22 23 24 25 26 27
000
FTUS45 KSLC 290522
TAF36U
TAF
K36U 290522Z 2906/3006 VRB03KT P6SM VCSH SCT080 BKN100
     FM290800 VRB05KT P6SM VCSH SCT070 BKN100
     FM291800 30012KT P6SM VCTS SCT060CB BKN090
     FM300400 01008KT P6SM VCSH SCT080 BKN100=

USA.gov is the U.S. government's official web portal to all federal, state and local government web resources and services.